sensor_id;sensor_type;location;lat;lon;timestamp;P1;durP1;ratioP1;P2;durP2;ratioP2
37971;SDS011;23794;48.234;8.344;2023-08-31T00:01:00;4.53;;;2.00;;
37971;SDS011;23794;48.234;8.344;2023-08-31T00:03:28;4.53;;;2.45;;
37971;SDS011;23794;48.234;8.344;2023-08-31T00:05:55;5.07;;;2.40;;
37971;SDS011;23794;48.234;8.344;2023-08-31T00:08:22;3.88;;;2.40;;
37971;SDS011;23794;48.234;8.344;2023-08-31T00:10:55;3.47;;;1.67;;
37971;SDS011;23794;48.234;8.344;2023-08-31T00:13:22;6.07;;;2.97;;
37971;SDS011;23794;48.234;8.344;2023-08-31T00:15:50;5.95;;;2.22;;
37971;SDS011;23794;48.234;8.344;2023-08-31T00:18:16;3.88;;;2.42;;
37971;SDS011;23794;48.234;8.344;2023-08-31T00:20:44;4.82;;;2.17;;
37971;SDS011;23794;48.234;8.344;2023-08-31T00:23:10;5.05;;;2.22;;
37971;SDS011;23794;48.234;8.344;2023-08-31T00:25:38;7.68;;;2.00;;
37971;SDS011;23794;48.234;8.344;2023-08-31T00:28:04;5.70;;;2.70;;
37971;SDS011;23794;48.234;8.344;2023-08-31T00:30:31;10.80;;;3.00;;
37971;SDS011;23794;48.234;8.344;2023-08-31T00:32:58;5.38;;;2.55;;
37971;SDS011;23794;48.234;8.344;2023-08-31T00:35:28;5.15;;;2.08;;
37971;SDS011;23794;48.234;8.344;2023-08-31T00:37:55;7.65;;;3.03;;
37971;SDS011;23794;48.234;8.344;2023-08-31T00:40:28;5.80;;;3.17;;
37971;SDS011;23794;48.234;8.344;2023-08-31T00:42:57;3.40;;;2.92;;
37971;SDS011;23794;48.234;8.344;2023-08-31T00:45:23;4.50;;;2.65;;
37971;SDS011;23794;48.234;8.344;2023-08-31T00:47:50;4.70;;;2.95;;
37971;SDS011;23794;48.234;8.344;2023-08-31T00:50:18;5.22;;;2.65;;
37971;SDS011;23794;48.234;8.344;2023-08-31T00:52:45;8.27;;;2.90;;
37971;SDS011;23794;48.234;8.344;2023-08-31T00:55:13;7.78;;;3.45;;
37971;SDS011;23794;48.234;8.344;2023-08-31T00:57:40;5.03;;;2.28;;
37971;SDS011;23794;48.234;8.344;2023-08-31T01:00:07;7.75;;;3.20;;
37971;SDS011;23794;48.234;8.344;2023-08-31T01:02:44;7.95;;;3.15;;
37971;SDS011;23794;48.234;8.344;2023-08-31T01:08:01;5.07;;;3.63;;
37971;SDS011;23794;48.234;8.344;2023-08-31T01:15:46;8.93;;;3.58;;
37971;SDS011;23794;48.234;8.344;2023-08-31T01:18:20;6.18;;;3.42;;
37971;SDS011;23794;48.234;8.344;2023-08-31T01:23:44;5.88;;;3.03;;
37971;SDS011;23794;48.234;8.344;2023-08-31T01:26:16;10.25;;;3.95;;
37971;SDS011;23794;48.234;8.344;2023-08-31T01:28:43;46.28;;;5.43;;
37971;SDS011;23794;48.234;8.344;2023-08-31T01:31:10;4.90;;;2.72;;
37971;SDS011;23794;48.234;8.344;2023-08-31T01:33:37;8.48;;;4.82;;
37971;SDS011;23794;48.234;8.344;2023-08-31T01:36:04;4.38;;;2.85;;
37971;SDS011;23794;48.234;8.344;2023-08-31T01:41:58;6.63;;;3.50;;
37971;SDS011;23794;48.234;8.344;2023-08-31T01:44:30;7.60;;;3.72;;
37971;SDS011;23794;48.234;8.344;2023-08-31T01:47:01;4.05;;;3.13;;
37971;SDS011;23794;48.234;8.344;2023-08-31T01:49:35;4.95;;;2.45;;
37971;SDS011;23794;48.234;8.344;2023-08-31T01:52:03;5.00;;;2.33;;
37971;SDS011;23794;48.234;8.344;2023-08-31T01:54:30;7.90;;;4.45;;
37971;SDS011;23794;48.234;8.344;2023-08-31T01:56:58;5.38;;;3.55;;
37971;SDS011;23794;48.234;8.344;2023-08-31T01:59:25;8.45;;;3.45;;
37971;SDS011;23794;48.234;8.344;2023-08-31T02:01:53;15.65;;;3.97;;
37971;SDS011;23794;48.234;8.344;2023-08-31T02:04:20;11.40;;;4.72;;
37971;SDS011;23794;48.234;8.344;2023-08-31T02:06:47;5.30;;;2.72;;
37971;SDS011;23794;48.234;8.344;2023-08-31T02:09:14;6.60;;;4.10;;
37971;SDS011;23794;48.234;8.344;2023-08-31T02:11:41;9.48;;;4.65;;
37971;SDS011;23794;48.234;8.344;2023-08-31T02:14:08;8.15;;;3.97;;
37971;SDS011;23794;48.234;8.344;2023-08-31T02:16:35;6.95;;;3.75;;
37971;SDS011;23794;48.234;8.344;2023-08-31T02:19:01;6.72;;;2.78;;
37971;SDS011;23794;48.234;8.344;2023-08-31T02:21:28;17.60;;;4.30;;
37971;SDS011;23794;48.234;8.344;2023-08-31T02:23:55;9.18;;;3.72;;
37971;SDS011;23794;48.234;8.344;2023-08-31T02:26:22;6.40;;;3.33;;
37971;SDS011;23794;48.234;8.344;2023-08-31T02:28:48;5.07;;;2.60;;
37971;SDS011;23794;48.234;8.344;2023-08-31T02:31:16;3.72;;;2.42;;
37971;SDS011;23794;48.234;8.344;2023-08-31T02:33:45;7.35;;;3.65;;
37971;SDS011;23794;48.234;8.344;2023-08-31T02:36:12;13.23;;;5.15;;
37971;SDS011;23794;48.234;8.344;2023-08-31T02:38:41;4.38;;;2.65;;
37971;SDS011;23794;48.234;8.344;2023-08-31T02:41:08;6.32;;;2.70;;
37971;SDS011;23794;48.234;8.344;2023-08-31T02:43:35;4.40;;;3.00;;
37971;SDS011;23794;48.234;8.344;2023-08-31T02:46:02;3.05;;;2.20;;
37971;SDS011;23794;48.234;8.344;2023-08-31T02:48:31;3.53;;;2.38;;
37971;SDS011;23794;48.234;8.344;2023-08-31T02:50:59;3.63;;;2.15;;
37971;SDS011;23794;48.234;8.344;2023-08-31T02:53:30;3.20;;;1.73;;
37971;SDS011;23794;48.234;8.344;2023-08-31T02:55:57;2.78;;;1.70;;
37971;SDS011;23794;48.234;8.344;2023-08-31T02:58:24;7.57;;;2.35;;
37971;SDS011;23794;48.234;8.344;2023-08-31T03:00:51;4.68;;;2.28;;
37971;SDS011;23794;48.234;8.344;2023-08-31T03:03:19;4.18;;;2.85;;
37971;SDS011;23794;48.234;8.344;2023-08-31T03:05:46;4.70;;;2.35;;
37971;SDS011;23794;48.234;8.344;2023-08-31T03:08:13;12.93;;;3.25;;
37971;SDS011;23794;48.234;8.344;2023-08-31T03:10:40;25.65;;;4.07;;
37971;SDS011;23794;48.234;8.344;2023-08-31T03:13:07;9.80;;;3.00;;
37971;SDS011;23794;48.234;8.344;2023-08-31T03:15:34;45.97;;;4.88;;
37971;SDS011;23794;48.234;8.344;2023-08-31T03:18:00;26.73;;;4.05;;
37971;SDS011;23794;48.234;8.344;2023-08-31T03:20:28;13.73;;;3.30;;
37971;SDS011;23794;48.234;8.344;2023-08-31T03:22:55;7.82;;;4.82;;
37971;SDS011;23794;48.234;8.344;2023-08-31T03:25:23;6.43;;;3.05;;
37971;SDS011;23794;48.234;8.344;2023-08-31T03:27:50;10.00;;;4.97;;
37971;SDS011;23794;48.234;8.344;2023-08-31T03:30:18;40.72;;;7.05;;
37971;SDS011;23794;48.234;8.344;2023-08-31T03:32:44;11.32;;;4.85;;
37971;SDS011;23794;48.234;8.344;2023-08-31T03:35:11;57.70;;;7.55;;
37971;SDS011;23794;48.234;8.344;2023-08-31T03:37:38;16.13;;;4.10;;
37971;SDS011;23794;48.234;8.344;2023-08-31T03:40:05;8.77;;;4.20;;
37971;SDS011;23794;48.234;8.344;2023-08-31T03:42:34;5.50;;;3.20;;
37971;SDS011;23794;48.234;8.344;2023-08-31T03:45:01;7.15;;;3.72;;
37971;SDS011;23794;48.234;8.344;2023-08-31T03:47:29;8.30;;;4.10;;
37971;SDS011;23794;48.234;8.344;2023-08-31T03:49:57;7.07;;;3.22;;
37971;SDS011;23794;48.234;8.344;2023-08-31T03:52:23;4.90;;;3.33;;
37971;SDS011;23794;48.234;8.344;2023-08-31T03:54:51;4.97;;;4.07;;
37971;SDS011;23794;48.234;8.344;2023-08-31T03:57:20;8.80;;;3.97;;
37971;SDS011;23794;48.234;8.344;2023-08-31T03:59:48;5.13;;;2.88;;
37971;SDS011;23794;48.234;8.344;2023-08-31T04:02:16;3.55;;;2.80;;
37971;SDS011;23794;48.234;8.344;2023-08-31T04:04:43;3.25;;;2.40;;
37971;SDS011;23794;48.234;8.344;2023-08-31T04:07:09;4.22;;;1.90;;
37971;SDS011;23794;48.234;8.344;2023-08-31T04:09:36;3.53;;;2.20;;
37971;SDS011;23794;48.234;8.344;2023-08-31T04:12:03;4.22;;;2.10;;
37971;SDS011;23794;48.234;8.344;2023-08-31T04:14:30;6.50;;;3.42;;
37971;SDS011;23794;48.234;8.344;2023-08-31T04:16:57;4.95;;;3.47;;
37971;SDS011;23794;48.234;8.344;2023-08-31T04:19:24;3.75;;;2.95;;
37971;SDS011;23794;48.234;8.344;2023-08-31T04:21:50;5.25;;;3.00;;
37971;SDS011;23794;48.234;8.344;2023-08-31T04:24:17;6.85;;;3.55;;
37971;SDS011;23794;48.234;8.344;2023-08-31T04:26:44;4.47;;;2.92;;
37971;SDS011;23794;48.234;8.344;2023-08-31T04:29:11;3.95;;;3.22;;
37971;SDS011;23794;48.234;8.344;2023-08-31T04:31:38;4.13;;;2.97;;
37971;SDS011;23794;48.234;8.344;2023-08-31T04:34:05;4.97;;;3.15;;
37971;SDS011;23794;48.234;8.344;2023-08-31T04:36:33;4.05;;;2.88;;
37971;SDS011;23794;48.234;8.344;2023-08-31T04:39:00;5.25;;;2.78;;
37971;SDS011;23794;48.234;8.344;2023-08-31T04:41:27;4.38;;;3.25;;
37971;SDS011;23794;48.234;8.344;2023-08-31T04:43:54;3.63;;;2.58;;
37971;SDS011;23794;48.234;8.344;2023-08-31T04:46:20;3.83;;;2.38;;
37971;SDS011;23794;48.234;8.344;2023-08-31T04:48:47;4.80;;;2.88;;
37971;SDS011;23794;48.234;8.344;2023-08-31T04:51:29;5.47;;;3.20;;
37971;SDS011;23794;48.234;8.344;2023-08-31T04:53:56;5.75;;;3.35;;
37971;SDS011;23794;48.234;8.344;2023-08-31T04:56:23;4.90;;;2.55;;
37971;SDS011;23794;48.234;8.344;2023-08-31T04:58:50;5.90;;;3.22;;
37971;SDS011;23794;48.234;8.344;2023-08-31T05:01:16;6.47;;;3.83;;
37971;SDS011;23794;48.234;8.344;2023-08-31T05:03:43;11.07;;;5.47;;
37971;SDS011;23794;48.234;8.344;2023-08-31T05:06:10;6.70;;;4.70;;
37971;SDS011;23794;48.234;8.344;2023-08-31T05:08:37;9.52;;;5.15;;
37971;SDS011;23794;48.234;8.344;2023-08-31T05:11:04;9.75;;;5.82;;
37971;SDS011;23794;48.234;8.344;2023-08-31T05:13:31;6.32;;;3.75;;
37971;SDS011;23794;48.234;8.344;2023-08-31T05:15:58;6.28;;;3.00;;
37971;SDS011;23794;48.234;8.344;2023-08-31T05:18:24;6.97;;;3.75;;
37971;SDS011;23794;48.234;8.344;2023-08-31T05:20:51;9.80;;;3.80;;
37971;SDS011;23794;48.234;8.344;2023-08-31T05:23:18;6.22;;;4.50;;
37971;SDS011;23794;48.234;8.344;2023-08-31T05:25:45;9.07;;;4.57;;
37971;SDS011;23794;48.234;8.344;2023-08-31T05:28:11;5.80;;;4.13;;
37971;SDS011;23794;48.234;8.344;2023-08-31T05:30:52;6.53;;;3.78;;
37971;SDS011;23794;48.234;8.344;2023-08-31T05:33:21;9.27;;;4.47;;
37971;SDS011;23794;48.234;8.344;2023-08-31T05:35:48;5.70;;;4.22;;
37971;SDS011;23794;48.234;8.344;2023-08-31T05:38:15;7.80;;;5.10;;
37971;SDS011;23794;48.234;8.344;2023-08-31T05:40:42;7.45;;;5.50;;
37971;SDS011;23794;48.234;8.344;2023-08-31T05:43:15;4.60;;;3.60;;
37971;SDS011;23794;48.234;8.344;2023-08-31T05:45:42;6.65;;;4.68;;
37971;SDS011;23794;48.234;8.344;2023-08-31T05:48:09;8.45;;;3.50;;
37971;SDS011;23794;48.234;8.344;2023-08-31T05:50:36;7.35;;;3.80;;
37971;SDS011;23794;48.234;8.344;2023-08-31T05:53:03;6.10;;;3.78;;
37971;SDS011;23794;48.234;8.344;2023-08-31T05:55:30;8.52;;;4.47;;
37971;SDS011;23794;48.234;8.344;2023-08-31T05:57:59;6.38;;;3.60;;
37971;SDS011;23794;48.234;8.344;2023-08-31T06:00:27;4.32;;;3.45;;
37971;SDS011;23794;48.234;8.344;2023-08-31T06:02:54;8.25;;;4.32;;
37971;SDS011;23794;48.234;8.344;2023-08-31T06:05:21;3.55;;;2.30;;
37971;SDS011;23794;48.234;8.344;2023-08-31T06:07:47;5.50;;;3.00;;
37971;SDS011;23794;48.234;8.344;2023-08-31T06:10:14;7.88;;;4.43;;
37971;SDS011;23794;48.234;8.344;2023-08-31T06:12:42;10.25;;;3.97;;
37971;SDS011;23794;48.234;8.344;2023-08-31T06:15:08;7.35;;;3.28;;
37971;SDS011;23794;48.234;8.344;2023-08-31T06:17:35;6.63;;;3.20;;
37971;SDS011;23794;48.234;8.344;2023-08-31T06:20:02;4.07;;;2.50;;
37971;SDS011;23794;48.234;8.344;2023-08-31T06:22:32;4.95;;;3.00;;
37971;SDS011;23794;48.234;8.344;2023-08-31T06:24:59;5.78;;;2.95;;
37971;SDS011;23794;48.234;8.344;2023-08-31T06:27:26;5.57;;;3.60;;
37971;SDS011;23794;48.234;8.344;2023-08-31T06:29:52;5.80;;;2.83;;
37971;SDS011;23794;48.234;8.344;2023-08-31T06:32:19;5.88;;;2.45;;
37971;SDS011;23794;48.234;8.344;2023-08-31T06:34:46;6.57;;;2.47;;
37971;SDS011;23794;48.234;8.344;2023-08-31T06:37:13;5.53;;;2.88;;
37971;SDS011;23794;48.234;8.344;2023-08-31T06:39:40;6.07;;;2.70;;
37971;SDS011;23794;48.234;8.344;2023-08-31T06:42:07;3.90;;;2.55;;
37971;SDS011;23794;48.234;8.344;2023-08-31T06:44:37;8.27;;;2.60;;
37971;SDS011;23794;48.234;8.344;2023-08-31T06:47:04;6.43;;;2.60;;
37971;SDS011;23794;48.234;8.344;2023-08-31T06:49:30;4.78;;;2.33;;
37971;SDS011;23794;48.234;8.344;2023-08-31T06:51:59;3.95;;;2.47;;
37971;SDS011;23794;48.234;8.344;2023-08-31T06:54:26;8.88;;;2.97;;
37971;SDS011;23794;48.234;8.344;2023-08-31T06:56:53;5.68;;;2.28;;
37971;SDS011;23794;48.234;8.344;2023-08-31T06:59:20;5.72;;;3.05;;
37971;SDS011;23794;48.234;8.344;2023-08-31T07:01:47;5.40;;;2.38;;
37971;SDS011;23794;48.234;8.344;2023-08-31T07:04:13;5.25;;;2.63;;
37971;SDS011;23794;48.234;8.344;2023-08-31T07:06:40;5.28;;;2.38;;
37971;SDS011;23794;48.234;8.344;2023-08-31T07:09:07;6.03;;;2.22;;
37971;SDS011;23794;48.234;8.344;2023-08-31T07:11:34;5.00;;;1.80;;
37971;SDS011;23794;48.234;8.344;2023-08-31T07:14:01;4.82;;;2.03;;
37971;SDS011;23794;48.234;8.344;2023-08-31T07:16:28;4.20;;;2.10;;
37971;SDS011;23794;48.234;8.344;2023-08-31T07:18:55;5.68;;;2.15;;
37971;SDS011;23794;48.234;8.344;2023-08-31T07:21:22;3.53;;;1.98;;
37971;SDS011;23794;48.234;8.344;2023-08-31T07:23:49;5.40;;;1.90;;
37971;SDS011;23794;48.234;8.344;2023-08-31T07:26:15;4.43;;;1.75;;
37971;SDS011;23794;48.234;8.344;2023-08-31T07:28:42;3.55;;;1.90;;
37971;SDS011;23794;48.234;8.344;2023-08-31T07:31:09;4.97;;;1.80;;
37971;SDS011;23794;48.234;8.344;2023-08-31T07:33:37;4.80;;;2.28;;
37971;SDS011;23794;48.234;8.344;2023-08-31T07:36:07;6.13;;;1.85;;
37971;SDS011;23794;48.234;8.344;2023-08-31T07:38:34;5.55;;;1.55;;
37971;SDS011;23794;48.234;8.344;2023-08-31T07:41:01;3.92;;;1.90;;
37971;SDS011;23794;48.234;8.344;2023-08-31T07:43:30;6.10;;;1.70;;
37971;SDS011;23794;48.234;8.344;2023-08-31T07:45:57;6.00;;;2.08;;
37971;SDS011;23794;48.234;8.344;2023-08-31T07:48:25;3.97;;;2.00;;
37971;SDS011;23794;48.234;8.344;2023-08-31T07:50:52;2.97;;;1.85;;
37971;SDS011;23794;48.234;8.344;2023-08-31T07:53:20;5.82;;;1.95;;
37971;SDS011;23794;48.234;8.344;2023-08-31T07:55:51;5.95;;;1.92;;
37971;SDS011;23794;48.234;8.344;2023-08-31T07:58:24;4.40;;;1.52;;
37971;SDS011;23794;48.234;8.344;2023-08-31T08:00:53;5.53;;;2.17;;
37971;SDS011;23794;48.234;8.344;2023-08-31T08:03:21;5.63;;;1.67;;
37971;SDS011;23794;48.234;8.344;2023-08-31T08:05:49;5.00;;;1.80;;
37971;SDS011;23794;48.234;8.344;2023-08-31T08:08:16;3.90;;;1.70;;
37971;SDS011;23794;48.234;8.344;2023-08-31T08:10:43;4.95;;;1.60;;
37971;SDS011;23794;48.234;8.344;2023-08-31T08:13:10;7.53;;;2.92;;
37971;SDS011;23794;48.234;8.344;2023-08-31T08:15:37;3.65;;;1.50;;
37971;SDS011;23794;48.234;8.344;2023-08-31T08:18:05;7.97;;;1.90;;
37971;SDS011;23794;48.234;8.344;2023-08-31T08:20:31;4.53;;;1.35;;
37971;SDS011;23794;48.234;8.344;2023-08-31T08:22:59;4.75;;;1.70;;
37971;SDS011;23794;48.234;8.344;2023-08-31T08:25:26;3.03;;;1.30;;
37971;SDS011;23794;48.234;8.344;2023-08-31T08:27:52;3.80;;;1.38;;
37971;SDS011;23794;48.234;8.344;2023-08-31T08:30:19;5.88;;;1.95;;
37971;SDS011;23794;48.234;8.344;2023-08-31T08:32:46;4.00;;;1.60;;
37971;SDS011;23794;48.234;8.344;2023-08-31T08:35:13;5.28;;;1.73;;
37971;SDS011;23794;48.234;8.344;2023-08-31T08:37:40;3.03;;;1.20;;
37971;SDS011;23794;48.234;8.344;2023-08-31T08:40:07;3.10;;;1.58;;
37971;SDS011;23794;48.234;8.344;2023-08-31T08:42:40;5.95;;;1.63;;
37971;SDS011;23794;48.234;8.344;2023-08-31T08:45:11;3.38;;;1.30;;
37971;SDS011;23794;48.234;8.344;2023-08-31T08:47:43;3.75;;;1.40;;
37971;SDS011;23794;48.234;8.344;2023-08-31T08:50:11;3.83;;;1.60;;
37971;SDS011;23794;48.234;8.344;2023-08-31T08:52:39;3.92;;;1.58;;
37971;SDS011;23794;48.234;8.344;2023-08-31T08:55:07;4.82;;;1.55;;
37971;SDS011;23794;48.234;8.344;2023-08-31T08:57:35;4.03;;;1.27;;
37971;SDS011;23794;48.234;8.344;2023-08-31T09:00:02;3.15;;;1.52;;
37971;SDS011;23794;48.234;8.344;2023-08-31T09:02:30;4.53;;;1.60;;
37971;SDS011;23794;48.234;8.344;2023-08-31T09:04:56;3.22;;;1.55;;
37971;SDS011;23794;48.234;8.344;2023-08-31T09:07:24;7.32;;;1.58;;
37971;SDS011;23794;48.234;8.344;2023-08-31T09:09:51;4.20;;;1.58;;
37971;SDS011;23794;48.234;8.344;2023-08-31T09:12:23;3.28;;;1.35;;
37971;SDS011;23794;48.234;8.344;2023-08-31T09:14:57;4.15;;;1.50;;
37971;SDS011;23794;48.234;8.344;2023-08-31T09:17:46;4.47;;;1.50;;
37971;SDS011;23794;48.234;8.344;2023-08-31T09:20:21;2.28;;;1.50;;
37971;SDS011;23794;48.234;8.344;2023-08-31T09:23:02;3.88;;;1.33;;
37971;SDS011;23794;48.234;8.344;2023-08-31T09:25:30;5.57;;;1.55;;
37971;SDS011;23794;48.234;8.344;2023-08-31T09:27:58;5.03;;;1.48;;
37971;SDS011;23794;48.234;8.344;2023-08-31T09:30:25;3.10;;;1.67;;
37971;SDS011;23794;48.234;8.344;2023-08-31T09:32:52;5.75;;;2.08;;
37971;SDS011;23794;48.234;8.344;2023-08-31T09:35:20;3.20;;;1.52;;
37971;SDS011;23794;48.234;8.344;2023-08-31T09:37:57;5.47;;;1.45;;
37971;SDS011;23794;48.234;8.344;2023-08-31T09:40:24;2.83;;;1.42;;
37971;SDS011;23794;48.234;8.344;2023-08-31T09:42:51;3.03;;;1.38;;
37971;SDS011;23794;48.234;8.344;2023-08-31T09:45:24;3.35;;;1.52;;
37971;SDS011;23794;48.234;8.344;2023-08-31T09:48:11;3.92;;;1.42;;
37971;SDS011;23794;48.234;8.344;2023-08-31T09:50:42;4.53;;;1.83;;
37971;SDS011;23794;48.234;8.344;2023-08-31T09:53:12;5.72;;;1.55;;
37971;SDS011;23794;48.234;8.344;2023-08-31T09:55:43;5.43;;;1.75;;
37971;SDS011;23794;48.234;8.344;2023-08-31T10:02:44;5.68;;;1.48;;
37971;SDS011;23794;48.234;8.344;2023-08-31T10:05:16;3.00;;;1.30;;
37971;SDS011;23794;48.234;8.344;2023-08-31T10:07:43;3.65;;;1.50;;
37971;SDS011;23794;48.234;8.344;2023-08-31T10:10:12;5.40;;;2.42;;
37971;SDS011;23794;48.234;8.344;2023-08-31T10:12:41;2.72;;;1.33;;
37971;SDS011;23794;48.234;8.344;2023-08-31T10:15:10;4.68;;;1.45;;
37971;SDS011;23794;48.234;8.344;2023-08-31T10:17:39;4.82;;;1.90;;
37971;SDS011;23794;48.234;8.344;2023-08-31T10:20:07;6.95;;;1.52;;
37971;SDS011;23794;48.234;8.344;2023-08-31T10:22:36;5.22;;;1.60;;
37971;SDS011;23794;48.234;8.344;2023-08-31T10:25:05;5.43;;;1.60;;
37971;SDS011;23794;48.234;8.344;2023-08-31T10:27:37;4.25;;;1.67;;
37971;SDS011;23794;48.234;8.344;2023-08-31T10:35:54;4.93;;;1.88;;
37971;SDS011;23794;48.234;8.344;2023-08-31T10:38:29;3.15;;;1.80;;
37971;SDS011;23794;48.234;8.344;2023-08-31T10:46:44;4.85;;;2.00;;
37971;SDS011;23794;48.234;8.344;2023-08-31T10:51:44;4.65;;;1.33;;
37971;SDS011;23794;48.234;8.344;2023-08-31T10:54:19;5.38;;;2.00;;
37971;SDS011;23794;48.234;8.344;2023-08-31T10:56:51;4.68;;;1.70;;
37971;SDS011;23794;48.234;8.344;2023-08-31T10:59:21;6.35;;;2.10;;
37971;SDS011;23794;48.234;8.344;2023-08-31T11:01:55;4.20;;;1.63;;
37971;SDS011;23794;48.234;8.344;2023-08-31T11:04:30;3.88;;;1.20;;
37971;SDS011;23794;48.234;8.344;2023-08-31T11:07:22;3.95;;;1.55;;
37971;SDS011;23794;48.234;8.344;2023-08-31T11:09:51;4.07;;;1.63;;
37971;SDS011;23794;48.234;8.344;2023-08-31T11:12:21;6.57;;;1.85;;
37971;SDS011;23794;48.234;8.344;2023-08-31T11:14:50;3.35;;;1.13;;
37971;SDS011;23794;48.234;8.344;2023-08-31T11:17:16;4.88;;;1.45;;
37971;SDS011;23794;48.234;8.344;2023-08-31T11:19:43;3.78;;;1.80;;
37971;SDS011;23794;48.234;8.344;2023-08-31T11:22:10;6.80;;;2.80;;
37971;SDS011;23794;48.234;8.344;2023-08-31T11:24:38;4.88;;;2.35;;
37971;SDS011;23794;48.234;8.344;2023-08-31T11:27:07;5.43;;;1.85;;
37971;SDS011;23794;48.234;8.344;2023-08-31T11:29:46;4.40;;;1.80;;
37971;SDS011;23794;48.234;8.344;2023-08-31T11:32:27;4.97;;;1.83;;
37971;SDS011;23794;48.234;8.344;2023-08-31T11:34:54;7.05;;;2.28;;
37971;SDS011;23794;48.234;8.344;2023-08-31T11:37:21;4.57;;;1.73;;
37971;SDS011;23794;48.234;8.344;2023-08-31T11:39:50;2.78;;;1.50;;
37971;SDS011;23794;48.234;8.344;2023-08-31T11:42:18;3.28;;;1.48;;
37971;SDS011;23794;48.234;8.344;2023-08-31T11:44:47;4.18;;;1.65;;
37971;SDS011;23794;48.234;8.344;2023-08-31T11:47:16;5.90;;;2.10;;
37971;SDS011;23794;48.234;8.344;2023-08-31T11:49:43;2.83;;;1.85;;
37971;SDS011;23794;48.234;8.344;2023-08-31T11:52:12;3.17;;;1.38;;
37971;SDS011;23794;48.234;8.344;2023-08-31T11:54:41;4.53;;;1.60;;
37971;SDS011;23794;48.234;8.344;2023-08-31T11:57:09;4.63;;;1.48;;
37971;SDS011;23794;48.234;8.344;2023-08-31T11:59:37;3.30;;;1.65;;
37971;SDS011;23794;48.234;8.344;2023-08-31T12:02:05;4.88;;;1.95;;
37971;SDS011;23794;48.234;8.344;2023-08-31T12:04:43;4.43;;;1.50;;
37971;SDS011;23794;48.234;8.344;2023-08-31T12:07:12;4.75;;;1.58;;
37971;SDS011;23794;48.234;8.344;2023-08-31T12:09:43;7.03;;;1.70;;
37971;SDS011;23794;48.234;8.344;2023-08-31T12:12:14;3.25;;;1.42;;
37971;SDS011;23794;48.234;8.344;2023-08-31T12:14:43;3.53;;;1.50;;
37971;SDS011;23794;48.234;8.344;2023-08-31T12:17:10;3.33;;;1.88;;
37971;SDS011;23794;48.234;8.344;2023-08-31T12:19:40;4.85;;;1.73;;
37971;SDS011;23794;48.234;8.344;2023-08-31T12:22:06;5.90;;;2.10;;
37971;SDS011;23794;48.234;8.344;2023-08-31T12:24:40;4.78;;;1.80;;
37971;SDS011;23794;48.234;8.344;2023-08-31T12:27:10;2.70;;;1.45;;
37971;SDS011;23794;48.234;8.344;2023-08-31T12:29:37;2.95;;;1.30;;
37971;SDS011;23794;48.234;8.344;2023-08-31T12:32:04;3.85;;;1.67;;
37971;SDS011;23794;48.234;8.344;2023-08-31T12:34:31;4.50;;;1.60;;
37971;SDS011;23794;48.234;8.344;2023-08-31T12:36:59;4.93;;;1.70;;
37971;SDS011;23794;48.234;8.344;2023-08-31T12:39:27;4.18;;;1.75;;
37971;SDS011;23794;48.234;8.344;2023-08-31T12:41:54;5.03;;;2.03;;
37971;SDS011;23794;48.234;8.344;2023-08-31T12:44:31;4.43;;;1.80;;
37971;SDS011;23794;48.234;8.344;2023-08-31T12:46:57;3.47;;;1.70;;
37971;SDS011;23794;48.234;8.344;2023-08-31T12:49:24;2.65;;;1.55;;
37971;SDS011;23794;48.234;8.344;2023-08-31T12:51:51;3.38;;;1.52;;
37971;SDS011;23794;48.234;8.344;2023-08-31T12:54:18;4.43;;;1.80;;
37971;SDS011;23794;48.234;8.344;2023-08-31T12:56:45;5.55;;;1.73;;
37971;SDS011;23794;48.234;8.344;2023-08-31T12:59:12;5.20;;;1.55;;
37971;SDS011;23794;48.234;8.344;2023-08-31T13:01:38;4.95;;;1.77;;
37971;SDS011;23794;48.234;8.344;2023-08-31T13:04:05;3.55;;;1.90;;
37971;SDS011;23794;48.234;8.344;2023-08-31T13:06:32;4.22;;;1.75;;
37971;SDS011;23794;48.234;8.344;2023-08-31T13:08:59;3.70;;;1.70;;
37971;SDS011;23794;48.234;8.344;2023-08-31T13:11:26;3.17;;;1.60;;
37971;SDS011;23794;48.234;8.344;2023-08-31T13:13:52;4.38;;;1.73;;
37971;SDS011;23794;48.234;8.344;2023-08-31T13:16:19;6.53;;;2.10;;
37971;SDS011;23794;48.234;8.344;2023-08-31T13:18:50;5.95;;;2.40;;
37971;SDS011;23794;48.234;8.344;2023-08-31T13:21:17;3.95;;;1.77;;
37971;SDS011;23794;48.234;8.344;2023-08-31T13:23:44;3.25;;;1.70;;
37971;SDS011;23794;48.234;8.344;2023-08-31T13:26:12;5.22;;;2.17;;
37971;SDS011;23794;48.234;8.344;2023-08-31T13:28:39;4.93;;;1.70;;
37971;SDS011;23794;48.234;8.344;2023-08-31T13:31:08;3.92;;;1.67;;
37971;SDS011;23794;48.234;8.344;2023-08-31T13:33:35;3.75;;;1.55;;
37971;SDS011;23794;48.234;8.344;2023-08-31T13:36:02;3.88;;;1.80;;
37971;SDS011;23794;48.234;8.344;2023-08-31T13:38:29;4.03;;;1.60;;
37971;SDS011;23794;48.234;8.344;2023-08-31T13:40:56;5.65;;;1.90;;
37971;SDS011;23794;48.234;8.344;2023-08-31T13:43:23;4.93;;;1.77;;
37971;SDS011;23794;48.234;8.344;2023-08-31T13:45:50;5.22;;;1.77;;
37971;SDS011;23794;48.234;8.344;2023-08-31T13:48:18;4.55;;;1.52;;
37971;SDS011;23794;48.234;8.344;2023-08-31T13:50:46;3.03;;;1.83;;
37971;SDS011;23794;48.234;8.344;2023-08-31T13:53:13;5.30;;;1.77;;
37971;SDS011;23794;48.234;8.344;2023-08-31T13:55:40;4.03;;;1.33;;
37971;SDS011;23794;48.234;8.344;2023-08-31T13:58:07;6.32;;;1.90;;
37971;SDS011;23794;48.234;8.344;2023-08-31T14:00:35;2.90;;;1.52;;
37971;SDS011;23794;48.234;8.344;2023-08-31T14:03:03;3.35;;;1.80;;
37971;SDS011;23794;48.234;8.344;2023-08-31T14:05:30;3.58;;;1.70;;
37971;SDS011;23794;48.234;8.344;2023-08-31T14:07:58;5.15;;;1.88;;
37971;SDS011;23794;48.234;8.344;2023-08-31T14:10:27;3.13;;;1.63;;
37971;SDS011;23794;48.234;8.344;2023-08-31T14:12:54;6.72;;;2.00;;
37971;SDS011;23794;48.234;8.344;2023-08-31T14:15:21;4.82;;;1.85;;
37971;SDS011;23794;48.234;8.344;2023-08-31T14:17:52;5.28;;;1.63;;
37971;SDS011;23794;48.234;8.344;2023-08-31T14:20:19;3.30;;;1.52;;
37971;SDS011;23794;48.234;8.344;2023-08-31T14:22:46;4.15;;;1.60;;
37971;SDS011;23794;48.234;8.344;2023-08-31T14:25:14;4.57;;;1.60;;
37971;SDS011;23794;48.234;8.344;2023-08-31T14:27:41;4.35;;;2.03;;
37971;SDS011;23794;48.234;8.344;2023-08-31T14:30:08;5.15;;;1.50;;
37971;SDS011;23794;48.234;8.344;2023-08-31T14:32:35;4.85;;;1.73;;
37971;SDS011;23794;48.234;8.344;2023-08-31T14:35:02;5.32;;;1.77;;
37971;SDS011;23794;48.234;8.344;2023-08-31T14:37:30;4.90;;;1.88;;
37971;SDS011;23794;48.234;8.344;2023-08-31T14:39:57;4.45;;;1.60;;
37971;SDS011;23794;48.234;8.344;2023-08-31T14:42:24;3.70;;;1.83;;
37971;SDS011;23794;48.234;8.344;2023-08-31T14:44:52;9.35;;;1.90;;
37971;SDS011;23794;48.234;8.344;2023-08-31T14:47:19;4.72;;;1.70;;
37971;SDS011;23794;48.234;8.344;2023-08-31T14:49:46;3.22;;;1.85;;
37971;SDS011;23794;48.234;8.344;2023-08-31T14:52:12;5.00;;;1.67;;
37971;SDS011;23794;48.234;8.344;2023-08-31T14:54:39;5.30;;;1.80;;
37971;SDS011;23794;48.234;8.344;2023-08-31T14:57:06;3.65;;;1.60;;
37971;SDS011;23794;48.234;8.344;2023-08-31T14:59:33;4.95;;;1.63;;
37971;SDS011;23794;48.234;8.344;2023-08-31T15:02:00;5.30;;;1.55;;
37971;SDS011;23794;48.234;8.344;2023-08-31T15:04:32;3.47;;;1.42;;
37971;SDS011;23794;48.234;8.344;2023-08-31T15:06:59;4.43;;;1.77;;
37971;SDS011;23794;48.234;8.344;2023-08-31T15:09:26;4.72;;;2.00;;
37971;SDS011;23794;48.234;8.344;2023-08-31T15:11:53;2.83;;;1.30;;
37971;SDS011;23794;48.234;8.344;2023-08-31T15:14:20;5.07;;;1.60;;
37971;SDS011;23794;48.234;8.344;2023-08-31T15:16:47;3.45;;;1.63;;
37971;SDS011;23794;48.234;8.344;2023-08-31T15:19:14;2.63;;;1.30;;
37971;SDS011;23794;48.234;8.344;2023-08-31T15:21:41;5.95;;;1.80;;
37971;SDS011;23794;48.234;8.344;2023-08-31T15:24:09;4.38;;;1.63;;
37971;SDS011;23794;48.234;8.344;2023-08-31T15:26:36;4.22;;;1.73;;